createdAt,value
2023-04-26T00:00:19.708Z,77.8873
2023-04-26T00:01:22.026Z,77.9653
2023-04-26T00:02:24.408Z,78.0572
2023-04-26T00:03:24.723Z,78.1462
2023-04-26T00:04:25.407Z,78.2440
2023-04-26T00:05:26.083Z,78.3301
2023-04-26T00:06:28.436Z,78.4297
2023-04-26T00:07:30.707Z,78.5174
2023-04-26T00:08:32.972Z,78.6123
2023-04-26T00:09:35.181Z,78.7102
2023-04-26T00:10:37.554Z,78.8044
2023-04-26T00:11:39.798Z,78.8932
2023-04-26T00:12:42.089Z,78.9658
2023-04-26T00:13:44.360Z,79.0366
2023-04-26T00:14:46.628Z,79.0971
2023-04-26T00:15:48.927Z,79.1458
2023-04-26T00:16:51.209Z,79.1569
2023-04-26T00:17:53.596Z,79.1795
2023-04-26T00:18:55.918Z,79.1906
2023-04-26T00:19:58.200Z,79.2005
2023-04-26T00:21:00.434Z,79.2085
2023-04-26T00:22:02.722Z,79.2112
2023-04-26T00:23:04.970Z,79.2185
2023-04-26T00:24:07.201Z,79.2409
2023-04-26T00:25:09.498Z,79.2825
2023-04-26T00:26:11.851Z,79.3289
2023-04-26T00:27:14.053Z,79.3673
2023-04-26T00:28:16.337Z,79.4018
2023-04-26T00:29:18.583Z,79.4489
2023-04-26T00:30:20.848Z,79.4947
2023-04-26T00:31:23.161Z,79.5366
2023-04-26T00:32:25.462Z,79.5784
2023-04-26T00:33:27.685Z,79.6092
2023-04-26T00:34:29.936Z,79.6353
2023-04-26T00:35:32.175Z,79.6561
2023-04-26T00:36:34.412Z,79.6561
2023-04-26T00:37:36.618Z,79.6607
2023-04-26T00:38:38.818Z,79.6612
2023-04-26T00:39:41.100Z,79.6617
2023-04-26T00:40:43.391Z,79.6559
2023-04-26T00:41:45.583Z,79.6576
2023-04-26T00:42:47.848Z,79.6631
2023-04-26T00:43:50.090Z,79.6806
2023-04-26T00:44:52.350Z,79.6901
2023-04-26T00:45:54.612Z,79.7090
2023-04-26T00:46:56.913Z,79.7246
2023-04-26T00:47:59.259Z,79.7387
2023-04-26T00:49:01.489Z,79.7729
2023-04-26T00:50:03.798Z,79.7919
2023-04-26T00:51:05.998Z,79.8176
2023-04-26T00:52:08.275Z,79.8358
2023-04-26T00:53:10.612Z,79.8495
2023-04-26T00:54:12.864Z,79.8662
2023-04-26T00:55:15.096Z,79.8926
2023-04-26T00:56:17.395Z,79.9175
2023-04-26T00:57:19.638Z,79.9390
2023-04-26T00:58:21.859Z,79.9589
2023-04-26T00:59:24.107Z,79.9823
2023-04-26T01:00:26.319Z,80.0115
2023-04-26T01:01:28.669Z,80.0354
2023-04-26T01:02:30.964Z,80.0584
2023-04-26T01:03:31.187Z,80.0811
2023-04-26T01:04:31.495Z,80.0879
2023-04-26T01:05:33.698Z,80.1050
2023-04-26T01:06:35.960Z,80.1246
2023-04-26T01:07:38.174Z,80.1301
2023-04-26T01:08:40.470Z,80.1329
2023-04-26T01:09:42.792Z,80.1396
2023-04-26T01:10:45.084Z,80.1516
2023-04-26T01:11:47.319Z,80.1568
2023-04-26T01:12:49.516Z,80.1652
2023-04-26T01:13:51.714Z,80.1736
2023-04-26T01:14:53.950Z,80.1827
2023-04-26T01:15:56.202Z,80.1896
2023-04-26T01:16:58.479Z,80.2082
2023-04-26T01:18:00.766Z,80.2283
2023-04-26T01:19:03.098Z,80.2490
2023-04-26T01:20:05.500Z,80.2744
2023-04-26T01:21:06.335Z,80.2866
2023-04-26T01:22:08.529Z,80.2953
2023-04-26T01:23:10.763Z,80.2963
2023-04-26T01:24:13.050Z,80.2998
2023-04-26T01:25:15.307Z,80.3058
2023-04-26T01:26:17.554Z,80.3090
2023-04-26T01:27:19.803Z,80.3032
2023-04-26T01:28:22.106Z,80.2802
2023-04-26T01:29:24.335Z,80.2531
2023-04-26T01:30:26.553Z,80.2159
2023-04-26T01:31:28.924Z,80.1823
2023-04-26T01:32:29.082Z,80.1591
2023-04-26T01:33:31.297Z,80.1437
2023-04-26T01:34:33.518Z,80.1337
2023-04-26T01:35:35.754Z,80.1198
2023-04-26T01:36:37.974Z,80.1104
2023-04-26T01:37:40.267Z,80.0996
2023-04-26T01:38:42.480Z,80.0916
2023-04-26T01:39:44.767Z,80.0870
2023-04-26T01:40:46.998Z,80.0821
2023-04-26T01:41:49.203Z,80.0763
2023-04-26T01:42:51.454Z,80.0673
2023-04-26T01:43:53.837Z,80.0451
2023-04-26T01:44:56.174Z,80.0280
2023-04-26T01:45:58.548Z,80.0090
2023-04-26T01:47:00.885Z,79.9945
2023-04-26T01:48:03.248Z,79.9828
2023-04-26T01:49:03.185Z,79.9729
2023-04-26T01:50:05.482Z,79.9685
2023-04-26T01:51:07.772Z,79.9719
2023-04-26T01:52:10.110Z,79.9698
2023-04-26T01:53:12.392Z,79.9631
2023-04-26T01:54:14.694Z,79.9507
2023-04-26T01:55:17.005Z,79.9260
2023-04-26T01:56:19.285Z,79.9030
2023-04-26T01:57:21.523Z,79.8784
2023-04-26T01:58:23.815Z,79.8640
2023-04-26T01:59:26.111Z,79.8592
2023-04-26T02:00:28.468Z,79.8645
2023-04-26T02:01:30.829Z,79.8667
2023-04-26T02:02:33.137Z,79.8703
2023-04-26T02:03:35.517Z,79.8668
2023-04-26T02:04:35.573Z,79.8589
2023-04-26T02:05:37.854Z,79.8534
2023-04-26T02:06:40.123Z,79.8548
2023-04-26T02:07:42.409Z,79.8621
2023-04-26T02:08:44.704Z,79.8798
2023-04-26T02:09:47.109Z,79.9042
2023-04-26T02:10:49.399Z,79.9211
2023-04-26T02:11:51.686Z,79.9351
2023-04-26T02:12:53.987Z,79.9473
2023-04-26T02:13:56.309Z,79.9648
2023-04-26T02:14:58.604Z,79.9991
2023-04-26T02:16:00.956Z,80.0339
2023-04-26T02:17:03.274Z,80.0770
2023-04-26T02:18:05.614Z,80.1266
2023-04-26T02:19:08.035Z,80.1716
2023-04-26T02:20:10.377Z,80.2120
2023-04-26T02:21:12.757Z,80.2334
2023-04-26T02:22:15.071Z,80.2561
2023-04-26T02:23:17.445Z,80.2670
2023-04-26T02:24:19.740Z,80.2794
2023-04-26T02:25:22.047Z,80.2914
2023-04-26T02:26:24.394Z,80.3099
2023-04-26T02:27:26.656Z,80.3349
2023-04-26T02:28:28.949Z,80.3477
2023-04-26T02:29:43.604Z,80.3634
2023-04-26T02:30:33.276Z,80.3839
2023-04-26T02:31:35.675Z,80.3891
2023-04-26T02:32:38.020Z,80.3948
2023-04-26T02:33:40.291Z,80.4013
2023-04-26T02:34:42.586Z,80.4067
2023-04-26T02:35:44.906Z,80.4119
2023-04-26T02:36:45.790Z,80.4156
2023-04-26T02:37:48.103Z,80.4114
2023-04-26T02:38:50.685Z,80.4014
2023-04-26T02:39:50.932Z,80.3947
2023-04-26T02:40:51.080Z,80.3776
2023-04-26T02:41:53.398Z,80.3647
2023-04-26T02:42:55.703Z,80.3505
2023-04-26T02:43:58.014Z,80.3400
2023-04-26T02:45:00.321Z,80.3345
2023-04-26T02:46:02.664Z,80.3343
2023-04-26T02:47:05.012Z,80.3433
2023-04-26T02:48:07.390Z,80.3507
2023-04-26T02:49:09.725Z,80.3525
2023-04-26T02:50:12.057Z,80.3488
2023-04-26T02:51:14.347Z,80.3570
2023-04-26T02:52:16.680Z,80.3782
2023-04-26T02:53:18.995Z,80.3996
2023-04-26T02:54:21.345Z,80.4272
2023-04-26T02:55:23.700Z,80.4551
2023-04-26T02:56:25.995Z,80.4813
2023-04-26T02:57:28.307Z,80.5175
2023-04-26T02:58:30.675Z,80.5495
2023-04-26T02:59:32.964Z,80.5790
2023-04-26T03:00:35.287Z,80.6122
2023-04-26T03:01:37.721Z,80.6469
2023-04-26T03:02:38.018Z,80.6776
2023-04-26T03:03:38.414Z,80.7048
2023-04-26T03:04:38.374Z,80.7287
2023-04-26T03:05:40.747Z,80.7392
2023-04-26T03:06:43.075Z,80.7526
2023-04-26T03:07:45.308Z,80.7643
2023-04-26T03:08:47.641Z,80.7786
2023-04-26T03:09:49.999Z,80.7839
2023-04-26T03:10:52.276Z,80.7881
2023-04-26T03:11:54.621Z,80.7905
2023-04-26T03:12:56.888Z,80.7916
2023-04-26T03:13:59.195Z,80.7961
2023-04-26T03:15:01.634Z,80.8021
2023-04-26T03:16:03.918Z,80.8064
2023-04-26T03:17:06.259Z,80.8072
2023-04-26T03:18:08.642Z,80.8016
2023-04-26T03:19:08.621Z,80.7996
2023-04-26T03:20:10.952Z,80.7970
2023-04-26T03:21:13.300Z,80.7984
2023-04-26T03:22:15.563Z,80.7934
2023-04-26T03:23:17.862Z,80.7916
2023-04-26T03:24:20.188Z,80.7787
2023-04-26T03:25:22.448Z,80.7684
2023-04-26T03:26:24.818Z,80.7568
2023-04-26T03:27:27.067Z,80.7402
2023-04-26T03:28:29.349Z,80.7271
2023-04-26T03:29:31.650Z,80.7153
2023-04-26T03:30:33.943Z,80.7083
2023-04-26T03:31:36.328Z,80.7035
2023-04-26T03:32:38.743Z,80.7047
2023-04-26T03:33:40.998Z,80.6927
2023-04-26T03:34:43.306Z,80.6965
2023-04-26T03:35:45.559Z,80.6957
2023-04-26T03:36:47.908Z,80.6962
2023-04-26T03:37:52.423Z,80.6961
2023-04-26T03:38:51.927Z,80.6955
2023-04-26T03:39:52.703Z,80.6831
2023-04-26T03:40:55.008Z,80.6790
2023-04-26T03:41:57.348Z,80.6684
2023-04-26T03:42:59.676Z,80.6624
2023-04-26T03:44:02.073Z,80.6628
2023-04-26T03:45:04.330Z,80.6619
2023-04-26T03:46:06.724Z,80.6562
2023-04-26T03:47:06.715Z,80.6516
2023-04-26T03:48:09.142Z,80.6473
2023-04-26T03:49:11.484Z,80.6376
2023-04-26T03:50:13.780Z,80.6191
2023-04-26T03:51:16.073Z,80.6009
2023-04-26T03:52:18.376Z,80.5769
2023-04-26T03:53:20.692Z,80.5515
2023-04-26T03:54:22.993Z,80.5120
2023-04-26T03:55:23.924Z,80.4593
2023-04-26T03:56:26.223Z,80.4014
2023-04-26T03:57:28.587Z,80.3427
2023-04-26T03:58:30.935Z,80.2768
2023-04-26T03:59:33.200Z,80.2081
2023-04-26T04:00:35.478Z,80.1552
2023-04-26T04:01:37.866Z,80.1122
2023-04-26T04:02:40.226Z,80.0765
2023-04-26T04:03:41.549Z,80.0496
2023-04-26T04:04:42.515Z,80.0368
2023-04-26T04:05:43.052Z,80.0349
2023-04-26T04:06:43.088Z,80.0463
2023-04-26T04:07:45.415Z,80.0679
2023-04-26T04:08:47.791Z,80.1003
2023-04-26T04:09:50.099Z,80.1378
2023-04-26T04:10:52.410Z,80.1812
2023-04-26T04:11:54.692Z,80.2245
2023-04-26T04:12:57.051Z,80.2644
2023-04-26T04:13:59.382Z,80.2984
2023-04-26T04:15:01.814Z,80.3234
2023-04-26T04:16:04.236Z,80.3477
2023-04-26T04:17:04.203Z,80.3653
2023-04-26T04:18:06.566Z,80.3847
2023-04-26T04:19:06.490Z,80.4039
2023-04-26T04:20:08.766Z,80.4185
2023-04-26T04:21:11.092Z,80.4321
2023-04-26T04:22:13.543Z,80.4486
2023-04-26T04:23:15.803Z,80.4593
2023-04-26T04:24:18.158Z,80.4674
2023-04-26T04:25:20.523Z,80.4835
2023-04-26T04:26:22.929Z,80.4986
2023-04-26T04:27:25.237Z,80.5094
2023-04-26T04:28:27.569Z,80.5191
2023-04-26T04:29:29.902Z,80.5281
2023-04-26T04:30:32.289Z,80.5318
2023-04-26T04:31:34.645Z,80.5378
2023-04-26T04:32:36.969Z,80.5467
2023-04-26T04:33:39.569Z,80.5496
2023-04-26T04:34:39.423Z,80.5535
2023-04-26T04:35:41.753Z,80.5615
2023-04-26T04:36:44.114Z,80.5649
2023-04-26T04:37:46.407Z,80.5646
2023-04-26T04:38:48.744Z,80.5681
2023-04-26T04:39:51.054Z,80.5764
2023-04-26T04:40:53.434Z,80.5860
2023-04-26T04:41:54.309Z,80.5981
2023-04-26T04:42:56.643Z,80.6035
2023-04-26T04:43:58.975Z,80.6081
2023-04-26T04:45:01.231Z,80.6138
2023-04-26T04:46:03.600Z,80.6195
2023-04-26T04:47:05.587Z,80.6296
2023-04-26T04:48:08.066Z,80.6329
2023-04-26T04:49:08.023Z,80.6370
2023-04-26T04:50:10.361Z,80.6498
2023-04-26T04:51:12.679Z,80.6608
2023-04-26T04:52:16.304Z,80.6646
2023-04-26T04:53:16.564Z,80.6795
2023-04-26T04:54:18.863Z,80.6837
2023-04-26T04:55:21.143Z,80.6946
2023-04-26T04:56:23.424Z,80.7057
2023-04-26T04:57:25.744Z,80.7094
2023-04-26T04:58:28.115Z,80.7167
2023-04-26T04:59:30.399Z,80.7241
2023-04-26T05:00:32.766Z,80.7315
2023-04-26T05:01:35.120Z,80.7308
2023-04-26T05:02:37.647Z,80.7392
2023-04-26T05:03:38.027Z,80.7536
2023-04-26T05:04:38.590Z,80.7638
2023-04-26T05:05:39.169Z,80.7713
2023-04-26T05:06:41.476Z,80.7731
2023-04-26T05:07:43.797Z,80.7702
2023-04-26T05:08:46.170Z,80.7747
2023-04-26T05:09:48.430Z,80.7739
2023-04-26T05:10:50.666Z,80.7743
2023-04-26T05:11:53.064Z,80.7695
2023-04-26T05:12:55.493Z,80.7722
2023-04-26T05:13:55.654Z,80.7682
2023-04-26T05:14:56.180Z,80.7770
2023-04-26T05:15:58.579Z,80.7805
2023-04-26T05:17:00.830Z,80.7778
2023-04-26T05:18:03.144Z,80.7712
2023-04-26T05:19:08.043Z,80.7713
2023-04-26T05:20:07.116Z,80.7733
2023-04-26T05:21:09.375Z,80.7703
2023-04-26T05:22:11.644Z,80.7668
2023-04-26T05:23:13.963Z,80.7636
2023-04-26T05:24:16.260Z,80.7563
2023-04-26T05:25:20.229Z,80.7455
2023-04-26T05:26:19.999Z,80.7410
2023-04-26T05:27:22.308Z,80.7264
2023-04-26T05:28:24.555Z,80.7139
2023-04-26T05:29:26.796Z,80.7046
2023-04-26T05:30:29.195Z,80.6952
2023-04-26T05:31:29.259Z,80.6933
2023-04-26T05:32:31.576Z,80.6947
2023-04-26T05:33:33.861Z,80.6963
2023-04-26T05:34:36.180Z,80.6989
2023-04-26T05:35:38.438Z,80.7023
2023-04-26T05:36:40.755Z,80.7053
2023-04-26T05:37:43.026Z,80.7089
2023-04-26T05:38:45.315Z,80.7123
2023-04-26T05:39:47.616Z,80.7147
2023-04-26T05:40:49.877Z,80.7099
2023-04-26T05:41:52.192Z,80.6993
2023-04-26T05:42:54.467Z,80.6937
2023-04-26T05:43:56.729Z,80.6944
2023-04-26T05:44:57.587Z,80.7000
2023-04-26T05:45:59.890Z,80.6997
2023-04-26T05:47:00.845Z,80.7026
2023-04-26T05:48:03.188Z,80.7091
2023-04-26T05:49:05.528Z,80.7214
2023-04-26T05:50:07.775Z,80.7330
2023-04-26T05:51:10.066Z,80.7478
2023-04-26T05:52:12.333Z,80.7598
2023-04-26T05:53:14.663Z,80.7736
2023-04-26T05:54:16.969Z,80.7870
2023-04-26T05:55:19.357Z,80.7969
2023-04-26T05:56:21.658Z,80.8066
2023-04-26T05:57:23.991Z,80.8146
2023-04-26T05:58:26.320Z,80.8145
2023-04-26T05:59:28.538Z,80.8120
2023-04-26T06:00:30.794Z,80.8085
2023-04-26T06:01:33.065Z,80.8067
2023-04-26T06:02:35.430Z,80.8106
2023-04-26T06:03:35.746Z,80.8029
2023-04-26T06:04:36.540Z,80.8000
2023-04-26T06:05:36.794Z,80.7994
2023-04-26T06:06:39.054Z,80.7966
2023-04-26T06:07:41.277Z,80.7958
2023-04-26T06:08:43.599Z,80.7889
2023-04-26T06:09:45.870Z,80.7767
2023-04-26T06:10:48.106Z,80.7708
2023-04-26T06:11:50.417Z,80.7685
2023-04-26T06:12:52.706Z,80.7734
2023-04-26T06:13:55.196Z,80.7728
2023-04-26T06:14:55.237Z,80.7807
2023-04-26T06:15:57.565Z,80.7809
2023-04-26T06:16:59.917Z,80.7942
2023-04-26T06:18:02.218Z,80.8084
2023-04-26T06:19:04.495Z,80.8233
2023-04-26T06:20:06.707Z,80.8258
2023-04-26T06:21:09.023Z,80.8311
2023-04-26T06:22:11.220Z,80.8296
2023-04-26T06:23:13.555Z,80.8374
2023-04-26T06:24:15.830Z,80.8339
2023-04-26T06:25:18.121Z,80.8225
2023-04-26T06:26:20.470Z,80.8148
2023-04-26T06:27:22.692Z,80.8002
2023-04-26T06:28:24.967Z,80.7914
2023-04-26T06:29:27.222Z,80.7707
2023-04-26T06:30:29.548Z,80.7424
2023-04-26T06:31:31.882Z,80.7112
2023-04-26T06:32:32.420Z,80.6834
2023-04-26T06:33:34.791Z,80.6613
2023-04-26T06:34:37.035Z,80.6441
2023-04-26T06:35:39.374Z,80.6309
2023-04-26T06:36:41.625Z,80.6203
2023-04-26T06:37:44.066Z,80.6135
2023-04-26T06:38:43.865Z,80.5988
2023-04-26T06:39:46.081Z,80.5788
2023-04-26T06:40:48.365Z,80.5530
2023-04-26T06:41:52.497Z,80.5315
2023-04-26T06:42:52.596Z,80.5090
2023-04-26T06:43:55.272Z,80.4848
2023-04-26T06:44:55.303Z,80.4632
2023-04-26T06:45:57.645Z,80.4391
2023-04-26T06:46:59.985Z,80.4206
2023-04-26T06:48:02.334Z,80.4022
2023-04-26T06:49:04.703Z,80.3736
2023-04-26T06:50:04.639Z,80.3514
2023-04-26T06:51:06.924Z,80.3295
2023-04-26T06:52:09.593Z,80.2978
2023-04-26T06:53:09.646Z,80.2512
2023-04-26T06:54:11.987Z,80.1885
2023-04-26T06:55:14.424Z,80.1255
2023-04-26T06:56:14.254Z,80.0666
2023-04-26T06:57:14.499Z,80.0304
2023-04-26T06:58:16.838Z,80.0025
2023-04-26T06:59:19.158Z,79.9843
2023-04-26T07:00:21.484Z,79.9717
2023-04-26T07:01:23.851Z,79.9478
2023-04-26T07:02:26.313Z,79.9118
2023-04-26T07:03:26.623Z,79.8733
2023-04-26T07:04:27.085Z,79.8341
2023-04-26T07:05:27.704Z,79.8031
2023-04-26T07:06:30.041Z,79.7759
2023-04-26T07:07:32.300Z,79.7504
2023-04-26T07:08:34.604Z,79.7238
2023-04-26T07:09:36.928Z,79.6846
2023-04-26T07:10:39.220Z,79.6508
2023-04-26T07:11:41.509Z,79.6108
2023-04-26T07:12:43.794Z,79.5687
2023-04-26T07:13:46.127Z,79.5194
2023-04-26T07:14:48.400Z,79.4627
2023-04-26T07:15:50.726Z,79.3924
2023-04-26T07:16:53.008Z,79.2615
2023-04-26T07:17:55.322Z,79.0741
2023-04-26T07:18:57.656Z,78.9015
2023-04-26T07:19:59.966Z,78.7646
2023-04-26T07:20:59.916Z,78.6405
2023-04-26T07:22:00.774Z,78.5192
2023-04-26T07:23:00.882Z,78.3483
2023-04-26T07:24:01.018Z,78.2475
2023-04-26T07:25:03.336Z,78.2115
2023-04-26T07:26:05.690Z,78.1776
2023-04-26T07:27:05.687Z,78.1538
2023-04-26T07:28:07.978Z,78.1150
2023-04-26T07:29:10.238Z,78.0585
2023-04-26T07:30:12.512Z,78.0125
2023-04-26T07:31:14.819Z,77.9883
2023-04-26T07:32:17.159Z,77.9633
2023-04-26T07:33:19.539Z,77.9433
2023-04-26T07:34:19.782Z,77.9134
2023-04-26T07:35:22.078Z,77.8694
2023-04-26T07:36:25.226Z,77.8164
2023-04-26T07:37:25.328Z,77.7781
2023-04-26T07:38:27.560Z,77.7266
2023-04-26T07:39:27.571Z,77.6646
2023-04-26T07:40:27.531Z,77.5896
2023-04-26T07:41:27.509Z,77.4964
2023-04-26T07:42:29.778Z,77.4112
2023-04-26T07:43:32.350Z,77.3420
2023-04-26T07:44:32.190Z,77.2618
2023-04-26T07:45:34.577Z,77.1398
2023-04-26T07:46:36.834Z,77.0073
2023-04-26T07:47:39.132Z,76.9155
2023-04-26T07:48:41.473Z,76.8191
2023-04-26T07:49:45.722Z,76.7444
2023-04-26T07:50:45.197Z,76.6748
2023-04-26T07:51:47.511Z,76.5432
2023-04-26T07:52:49.826Z,76.2933
2023-04-26T07:53:52.258Z,76.0046
2023-04-26T07:54:52.769Z,75.1500
2023-04-26T07:55:55.068Z,74.5608
2023-04-26T07:56:57.422Z,74.3792
2023-04-26T07:57:59.701Z,74.2583
2023-04-26T07:59:02.187Z,73.8760
2023-04-26T08:00:01.988Z,73.6674
2023-04-26T08:01:04.306Z,73.7806
2023-04-26T08:02:06.805Z,73.9985
2023-04-26T08:03:06.786Z,74.1696
2023-04-26T08:04:07.313Z,74.3039
2023-04-26T08:05:07.966Z,74.4063
2023-04-26T08:06:08.140Z,74.4535
2023-04-26T08:07:07.996Z,74.3664
2023-04-26T08:08:10.322Z,74.0607
2023-04-26T08:09:12.639Z,73.8244
2023-04-26T08:10:14.949Z,73.7313
2023-04-26T08:11:17.239Z,73.6751
2023-04-26T08:12:19.509Z,73.6327
2023-04-26T08:13:21.825Z,73.3703
2023-04-26T08:14:24.133Z,73.2174
2023-04-26T08:15:26.475Z,73.1801
2023-04-26T08:16:28.775Z,73.0555
2023-04-26T08:17:31.085Z,73.0495
2023-04-26T08:18:33.430Z,73.1183
2023-04-26T08:19:35.730Z,73.2050
2023-04-26T08:20:37.189Z,73.2786
2023-04-26T08:21:40.966Z,73.3293
2023-04-26T08:22:44.766Z,73.3757
2023-04-26T08:23:45.317Z,73.4224
2023-04-26T08:24:47.594Z,73.4134
2023-04-26T08:25:49.905Z,73.2141
2023-04-26T08:26:52.198Z,72.7572
2023-04-26T08:27:54.475Z,72.3720
2023-04-26T08:28:56.846Z,72.1837
2023-04-26T08:29:59.318Z,72.1967
2023-04-26T08:30:59.175Z,72.2766
2023-04-26T08:32:01.472Z,72.3724
2023-04-26T08:33:03.964Z,72.4729
2023-04-26T08:34:03.886Z,72.5336
2023-04-26T08:35:06.227Z,72.5176
2023-04-26T08:36:08.495Z,72.4375
2023-04-26T08:37:10.775Z,72.3488
2023-04-26T08:38:13.099Z,72.2969
2023-04-26T08:39:15.362Z,72.1586
2023-04-26T08:40:17.680Z,72.0561
2023-04-26T08:41:19.999Z,72.0813
2023-04-26T08:42:22.331Z,72.1589
2023-04-26T08:43:24.625Z,72.1985
2023-04-26T08:44:27.045Z,72.2138
2023-04-26T08:45:28.002Z,72.2625
2023-04-26T08:46:30.339Z,72.1976
2023-04-26T08:47:30.270Z,72.0450
2023-04-26T08:48:32.556Z,72.0122
2023-04-26T08:49:34.853Z,72.0133
2023-04-26T08:50:37.175Z,71.9902
2023-04-26T08:51:39.533Z,71.9205
2023-04-26T08:52:41.851Z,71.8788
2023-04-26T08:53:44.148Z,71.8951
2023-04-26T08:54:46.495Z,71.9584
2023-04-26T08:55:48.794Z,72.0214
2023-04-26T08:56:51.069Z,72.0897
2023-04-26T08:57:53.407Z,72.1510
2023-04-26T08:58:55.660Z,72.1586
2023-04-26T08:59:58.000Z,72.1211
2023-04-26T09:01:00.382Z,72.0753
2023-04-26T09:02:02.779Z,72.0183
2023-04-26T09:03:03.110Z,71.9188
2023-04-26T09:04:03.404Z,71.8064
2023-04-26T09:05:04.911Z,71.6378
2023-04-26T09:06:05.210Z,71.3304
2023-04-26T09:07:07.522Z,70.6491
2023-04-26T09:08:09.803Z,70.3140
2023-04-26T09:09:12.125Z,70.2461
2023-04-26T09:10:14.454Z,70.3864
2023-04-26T09:11:16.725Z,70.5637
2023-04-26T09:12:19.011Z,70.6920
2023-04-26T09:13:21.321Z,70.7608
2023-04-26T09:14:23.655Z,70.8534
2023-04-26T09:15:25.979Z,70.8921
2023-04-26T09:16:26.942Z,70.8884
2023-04-26T09:17:26.860Z,70.9167
2023-04-26T09:18:26.692Z,70.9463
2023-04-26T09:19:29.037Z,70.9908
2023-04-26T09:20:28.893Z,71.0631
2023-04-26T09:21:31.198Z,71.1254
2023-04-26T09:22:33.496Z,71.1538
2023-04-26T09:23:35.815Z,71.1009
2023-04-26T09:24:38.040Z,71.0279
2023-04-26T09:25:40.269Z,70.8681
2023-04-26T09:26:42.547Z,70.6826
2023-04-26T09:27:45.018Z,70.4890
2023-04-26T09:28:45.273Z,70.3132
2023-04-26T09:29:45.201Z,70.1663
2023-04-26T09:30:45.208Z,69.9823
2023-04-26T09:31:47.767Z,69.2886
2023-04-26T09:32:45.369Z,68.5355
2023-04-26T09:33:45.285Z,68.3016
2023-04-26T09:34:47.557Z,68.3224
2023-04-26T09:35:49.820Z,68.4147
2023-04-26T09:36:52.039Z,68.4702
2023-04-26T09:37:58.750Z,68.4883
2023-04-26T09:38:55.946Z,68.4456
2023-04-26T09:39:58.196Z,68.1952
2023-04-26T09:40:58.245Z,67.8727
2023-04-26T09:41:58.608Z,67.7056
2023-04-26T09:43:00.842Z,67.6320
2023-04-26T09:44:03.079Z,67.6436
2023-04-26T09:45:05.297Z,67.5482
2023-04-26T09:46:07.507Z,67.2589
2023-04-26T09:47:09.863Z,66.8118
2023-04-26T09:48:09.865Z,66.4471
2023-04-26T09:49:10.620Z,66.3126
2023-04-26T09:50:12.839Z,66.1492
2023-04-26T09:51:15.018Z,65.5061
2023-04-26T09:52:17.189Z,64.9755
2023-04-26T09:53:19.394Z,64.8903
2023-04-26T09:54:21.550Z,64.8597
2023-04-26T09:55:34.125Z,64.6866
2023-04-26T09:56:25.578Z,64.5242
2023-04-26T09:57:27.821Z,64.4804
2023-04-26T09:58:30.048Z,64.4635
2023-04-26T09:59:32.300Z,64.4619
2023-04-26T10:00:34.563Z,64.5722
2023-04-26T10:01:36.878Z,64.7300
2023-04-26T10:02:36.765Z,64.8113
2023-04-26T10:03:36.786Z,64.7712
2023-04-26T10:04:37.707Z,64.6595
2023-04-26T10:05:37.647Z,64.5821
2023-04-26T10:06:39.956Z,64.3431
2023-04-26T10:07:42.131Z,64.2603
2023-04-26T10:08:44.357Z,64.2854
2023-04-26T10:09:44.258Z,64.2569
2023-04-26T10:10:46.466Z,64.3468
2023-04-26T10:11:48.724Z,64.2965
2023-04-26T10:12:51.034Z,63.4843
2023-04-26T10:13:53.225Z,62.7405
2023-04-26T10:14:55.423Z,62.6034
2023-04-26T10:15:57.695Z,62.7303
2023-04-26T10:17:00.114Z,62.8691
2023-04-26T10:18:00.068Z,62.7942
2023-04-26T10:18:59.990Z,62.2372
2023-04-26T10:20:02.300Z,61.8223
2023-04-26T10:21:02.139Z,61.0239
2023-04-26T10:22:04.365Z,60.0918
2023-04-26T10:23:06.595Z,60.0282
2023-04-26T10:24:08.871Z,60.3596
2023-04-26T10:25:11.137Z,60.0395
2023-04-26T10:26:14.309Z,59.7378
2023-04-26T10:27:14.035Z,59.8934
2023-04-26T10:28:16.308Z,60.2721
2023-04-26T10:29:18.510Z,60.6310
2023-04-26T10:30:20.783Z,60.7069
2023-04-26T10:31:22.995Z,60.8042
2023-04-26T10:32:25.274Z,60.9235
2023-04-26T10:33:27.626Z,60.6892
2023-04-26T10:34:27.388Z,60.4554
2023-04-26T10:35:29.607Z,60.5919
2023-04-26T10:36:31.873Z,60.8255
2023-04-26T10:37:34.079Z,60.9702
2023-04-26T10:38:36.282Z,61.0672
2023-04-26T10:39:38.469Z,61.0844
2023-04-26T10:40:40.694Z,61.0819
2023-04-26T10:41:42.949Z,61.0998
2023-04-26T10:42:45.140Z,60.6753
2023-04-26T10:43:47.345Z,59.7351
2023-04-26T10:44:49.488Z,59.2986
2023-04-26T10:45:51.877Z,59.2588
2023-04-26T10:46:52.058Z,59.0863
2023-04-26T10:47:54.279Z,58.8101
2023-04-26T10:48:56.440Z,58.4669
2023-04-26T10:49:58.589Z,57.2636
2023-04-26T10:51:00.819Z,56.1691
2023-04-26T10:52:03.015Z,55.6855
2023-04-26T10:53:05.257Z,55.4578
2023-04-26T10:54:07.415Z,55.7508
2023-04-26T10:55:09.611Z,56.0147
2023-04-26T10:56:11.822Z,55.9917
2023-04-26T10:57:14.028Z,55.6935
2023-04-26T10:58:16.247Z,54.0607
2023-04-26T10:59:33.261Z,54.2367
2023-04-26T11:00:17.763Z,54.7344
2023-04-26T11:01:19.949Z,55.0006
2023-04-26T11:02:22.200Z,55.3052
2023-04-26T11:03:24.463Z,54.8629
2023-04-26T11:04:24.951Z,54.1704
2023-04-26T11:05:25.500Z,54.4304
2023-04-26T11:06:25.376Z,54.7470
2023-04-26T11:07:27.590Z,54.6841
2023-04-26T11:08:29.791Z,54.3371
2023-04-26T11:09:29.658Z,54.1710
2023-04-26T11:10:31.861Z,53.7988
2023-04-26T11:11:34.056Z,53.7689
2023-04-26T11:12:36.251Z,51.7350
2023-04-26T11:13:38.447Z,48.5728
2023-04-26T11:14:40.618Z,48.4406
2023-04-26T11:15:42.864Z,46.6074
2023-04-26T11:16:45.234Z,45.3635
2023-04-26T11:17:45.035Z,45.7765
2023-04-26T11:18:47.280Z,46.3767
2023-04-26T11:19:49.548Z,47.0165
2023-04-26T11:20:51.809Z,47.6876
2023-04-26T11:21:55.219Z,48.2173
2023-04-26T11:22:56.271Z,48.5375
2023-04-26T11:23:58.476Z,48.8249
2023-04-26T11:25:00.858Z,49.2840
2023-04-26T11:26:00.633Z,49.7562
2023-04-26T11:27:02.843Z,49.9817
2023-04-26T11:28:03.594Z,49.8087
2023-04-26T11:29:05.863Z,49.6994
2023-04-26T11:30:05.625Z,49.7378
2023-04-26T11:31:05.686Z,49.8530
2023-04-26T11:32:05.557Z,50.0158
2023-04-26T11:33:07.825Z,50.1809
2023-04-26T11:34:07.691Z,49.9480
2023-04-26T11:35:09.906Z,49.7976
2023-04-26T11:36:12.129Z,50.0190
2023-04-26T11:37:14.357Z,50.1847
2023-04-26T11:38:16.531Z,49.8230
2023-04-26T11:39:18.740Z,49.5651
2023-04-26T11:40:20.928Z,49.4035
2023-04-26T11:41:23.115Z,49.5593
2023-04-26T11:42:23.025Z,49.4661
2023-04-26T11:43:23.795Z,48.4564
2023-04-26T11:44:25.918Z,47.2387
2023-04-26T11:45:28.086Z,46.5640
2023-04-26T11:46:27.942Z,45.2673
2023-04-26T11:47:27.688Z,42.7614
2023-04-26T11:48:28.150Z,40.3217
2023-04-26T11:49:30.273Z,39.6283
2023-04-26T11:50:32.456Z,39.8070
2023-04-26T11:51:34.716Z,39.8740
2023-04-26T11:52:36.926Z,40.2976
2023-04-26T11:53:39.145Z,40.8922
2023-04-26T11:54:41.308Z,41.3716
2023-04-26T11:55:43.536Z,41.5858
2023-04-26T11:56:45.773Z,41.6996
2023-04-26T11:57:47.965Z,42.0473
2023-04-26T11:58:50.328Z,42.3366
2023-04-26T11:59:51.090Z,42.8304
2023-04-26T12:00:53.283Z,43.1632
2023-04-26T12:01:55.522Z,43.1770
2023-04-26T12:02:57.881Z,43.6703
2023-04-26T12:03:58.312Z,44.0393
2023-04-26T12:04:58.937Z,44.3872
2023-04-26T12:05:59.463Z,44.6555
2023-04-26T12:07:01.658Z,44.6143
2023-04-26T12:08:03.760Z,44.4656
2023-04-26T12:09:06.069Z,44.3632
2023-04-26T12:10:05.819Z,43.7405
2023-04-26T12:11:07.998Z,43.6851
2023-04-26T12:12:10.188Z,43.9318
2023-04-26T12:13:12.375Z,43.7424
2023-04-26T12:14:14.557Z,43.6392
2023-04-26T12:15:15.601Z,43.1025
2023-04-26T12:16:25.498Z,42.6265
2023-04-26T12:17:17.432Z,42.3143
2023-04-26T12:18:17.514Z,42.3047
2023-04-26T12:19:17.795Z,42.5709
2023-04-26T12:20:20.004Z,42.7574
2023-04-26T12:21:22.243Z,42.9805
2023-04-26T12:22:24.419Z,43.2375
2023-04-26T12:23:26.632Z,43.3495
2023-04-26T12:24:26.351Z,43.5324
2023-04-26T12:25:28.562Z,43.8207
2023-04-26T12:26:30.796Z,43.9686
2023-04-26T12:27:30.541Z,44.0232
2023-04-26T12:28:32.751Z,43.9389